Terminal Aerodrome Forecast
Issued by NWS

Home | Current Version | Previous Version | Text Only | Print | Product List | Glossary On
Versions: 1 2 3 4 5 6 7 8 9 10 11 12 13 14 15
513
FTAK31 PAJN 032331
TAFAWG
TAF
PAWG 032331Z 0400/0424 09005KT P6SM VCSH BKN045 OVC060
     FM040200 24005KT P6SM -SHRA BKN040 OVC060
     FM040600 14005KT P6SM VCSH OVC070
     FM040900 14005KT P6SM VCFG OVC035
     FM042000 24007KT P6SM BKN070
      AMD LTD TO CLD VIS AND WIND 0406/0415=

USA.gov is the U.S. government's official web portal to all federal, state and local government web resources and services.